createdAt,value
2023-01-25T00:00:49.244Z,25.30
2023-01-25T00:03:18.366Z,25.31
2023-01-25T00:05:47.978Z,25.34
2023-01-25T00:08:17.603Z,25.36
2023-01-25T00:10:50.188Z,25.38
2023-01-25T00:13:29.665Z,25.41
2023-01-25T00:16:33.987Z,25.43
2023-01-25T00:18:50.240Z,25.46
2023-01-25T00:21:30.702Z,25.49
2023-01-25T00:24:09.255Z,25.51
2023-01-25T00:26:41.992Z,25.49
2023-01-25T00:29:20.750Z,25.45
2023-01-25T00:32:05.687Z,25.40
2023-01-25T00:34:43.685Z,25.37
2023-01-25T00:37:25.149Z,25.35
2023-01-25T00:39:55.925Z,25.31
2023-01-25T00:42:37.545Z,25.28
2023-01-25T00:45:10.451Z,25.25
2023-01-25T00:47:45.960Z,25.23
2023-01-25T00:50:19.287Z,25.20
2023-01-25T00:53:00.383Z,25.17
2023-01-25T00:55:25.277Z,25.16
2023-01-25T00:57:54.651Z,25.12
2023-01-25T01:00:29.614Z,25.11
2023-01-25T01:03:01.805Z,25.08
2023-01-25T01:05:36.909Z,25.05
2023-01-25T01:08:06.573Z,25.03
2023-01-25T01:10:44.187Z,25.02
2023-01-25T01:13:20.274Z,24.99
2023-01-25T01:18:43.747Z,24.93
2023-01-25T01:21:35.240Z,24.91
2023-01-25T01:24:10.641Z,24.90
2023-01-25T01:26:51.379Z,24.91
2023-01-25T01:29:23.626Z,24.94
2023-01-25T01:31:54.522Z,24.96
2023-01-25T01:34:27.264Z,24.99
2023-01-25T01:36:56.809Z,25.01
2023-01-25T01:39:26.040Z,25.03
2023-01-25T01:42:01.711Z,25.06
2023-01-25T01:44:49.055Z,25.09
2023-01-25T01:47:34.450Z,25.12
2023-01-25T01:50:14.943Z,25.14
2023-01-25T01:52:50.032Z,25.17
2023-01-25T01:55:21.747Z,25.20
2023-01-25T01:57:51.313Z,25.22
2023-01-25T02:00:26.471Z,25.24
2023-01-25T02:06:22.242Z,25.29
2023-01-25T02:08:32.388Z,25.32
2023-01-25T02:11:02.647Z,25.28
2023-01-25T02:13:31.932Z,25.25
2023-01-25T02:16:01.142Z,25.22
2023-01-25T02:18:40.528Z,25.18
2023-01-25T02:21:16.157Z,25.15
2023-01-25T02:23:59.834Z,25.13
2023-01-25T02:26:29.165Z,25.09
2023-01-25T02:29:02.691Z,25.06
2023-01-25T02:31:33.493Z,25.03
2023-01-25T02:34:16.526Z,25.03
2023-01-25T02:36:49.221Z,25.00
2023-01-25T02:39:30.973Z,24.97
2023-01-25T02:42:02.824Z,24.96
2023-01-25T02:44:38.178Z,24.93
2023-01-25T02:47:11.348Z,24.91
2023-01-25T02:49:41.073Z,24.89
2023-01-25T02:52:12.667Z,24.86
2023-01-25T02:54:42.915Z,24.84
2023-01-25T02:57:17.572Z,24.83
2023-01-25T02:59:46.760Z,24.79
2023-01-25T03:02:15.960Z,24.79
2023-01-25T03:04:45.752Z,24.81
2023-01-25T03:07:15.045Z,24.83
2023-01-25T03:10:06.155Z,24.85
2023-01-25T03:12:31.613Z,24.87
2023-01-25T03:15:01.988Z,24.91
2023-01-25T03:17:32.179Z,24.92
2023-01-25T03:20:08.897Z,24.97
2023-01-25T03:22:46.525Z,25.01
2023-01-25T03:25:15.707Z,25.05
2023-01-25T03:27:45.005Z,25.06
2023-01-25T03:30:14.378Z,25.09
2023-01-25T03:32:47.181Z,25.11
2023-01-25T03:35:26.919Z,25.15
2023-01-25T03:37:59.358Z,25.21
2023-01-25T03:40:28.563Z,25.23
2023-01-25T03:42:57.765Z,25.26
2023-01-25T03:45:35.800Z,25.29
2023-01-25T03:48:05.286Z,25.31
2023-01-25T03:50:37.532Z,25.33
2023-01-25T03:53:23.600Z,25.36
2023-01-25T03:55:51.596Z,25.37
2023-01-25T03:58:44.808Z,25.39
2023-01-25T04:01:14.964Z,25.42
2023-01-25T04:03:59.380Z,25.48
2023-01-25T04:06:45.424Z,25.48
2023-01-25T04:09:15.550Z,25.43
2023-01-25T04:11:46.852Z,25.38
2023-01-25T04:14:16.325Z,25.34
2023-01-25T04:16:45.582Z,25.31
2023-01-25T04:19:14.808Z,25.28
2023-01-25T04:21:45.808Z,25.25
2023-01-25T04:24:17.367Z,25.21
2023-01-25T04:26:47.118Z,25.19
2023-01-25T04:29:16.721Z,25.15
2023-01-25T04:31:53.769Z,25.12
2023-01-25T04:34:24.751Z,25.09
2023-01-25T04:36:55.083Z,25.07
2023-01-25T04:39:30.853Z,25.06
2023-01-25T04:42:00.179Z,25.03
2023-01-25T04:44:31.081Z,25.00
2023-01-25T04:52:42.504Z,24.91
2023-01-25T04:55:56.318Z,24.89
2023-01-25T04:58:02.818Z,24.87
2023-01-25T05:03:11.352Z,24.80
2023-01-25T05:05:41.409Z,24.77
2023-01-25T05:11:24.126Z,24.71
2023-01-25T05:14:04.732Z,24.67
2023-01-25T05:16:37.649Z,24.65
2023-01-25T05:19:27.274Z,24.60
2023-01-25T05:22:12.089Z,24.57
2023-01-25T05:24:54.070Z,24.54
2023-01-25T05:27:49.947Z,24.49
2023-01-25T05:30:24.526Z,24.45
2023-01-25T05:32:59.980Z,24.42
2023-01-25T05:35:32.761Z,24.40
2023-01-25T05:38:13.282Z,24.37
2023-01-25T05:40:48.607Z,24.33
2023-01-25T05:43:18.307Z,24.28
2023-01-25T05:45:53.353Z,24.26
2023-01-25T05:48:39.897Z,24.23
2023-01-25T05:51:11.913Z,24.19
2023-01-25T05:53:51.193Z,24.15
2023-01-25T05:56:31.507Z,24.13
2023-01-25T05:59:00.805Z,24.08
2023-01-25T06:01:36.995Z,24.06
2023-01-25T06:04:12.917Z,24.03
2023-01-25T06:06:46.804Z,24.01
2023-01-25T06:09:35.506Z,23.97
2023-01-25T06:12:27.517Z,23.95
2023-01-25T06:15:08.908Z,23.91
2023-01-25T06:17:45.385Z,23.88
2023-01-25T06:20:20.124Z,23.85
2023-01-25T06:23:09.730Z,23.81
2023-01-25T06:25:41.212Z,23.77
2023-01-25T06:28:11.175Z,23.74
2023-01-25T06:30:47.679Z,23.71
2023-01-25T06:33:18.321Z,23.67
2023-01-25T06:36:03.434Z,23.65
2023-01-25T06:38:44.137Z,23.63
2023-01-25T06:41:11.855Z,23.60
2023-01-25T06:46:52.994Z,23.52
2023-01-25T06:49:29.481Z,23.49
2023-01-25T06:52:07.307Z,23.46
2023-01-25T06:54:49.309Z,23.42
2023-01-25T06:57:22.606Z,23.40
2023-01-25T06:59:58.685Z,23.37
2023-01-25T07:02:29.956Z,23.34
2023-01-25T07:05:25.077Z,23.32
2023-01-25T07:08:00.190Z,23.30
2023-01-25T07:10:34.537Z,23.26
2023-01-25T07:13:09.863Z,23.22
2023-01-25T07:15:43.197Z,23.19
2023-01-25T07:18:16.483Z,23.17
2023-01-25T07:20:43.833Z,23.14
2023-01-25T07:23:28.837Z,23.10
2023-01-25T07:26:05.604Z,23.09
2023-01-25T07:28:42.698Z,23.03
2023-01-25T07:31:17.226Z,23.01
2023-01-25T07:33:49.499Z,22.98
2023-01-25T07:36:36.318Z,22.96
2023-01-25T07:39:08.047Z,22.93
2023-01-25T07:41:46.302Z,22.92
2023-01-25T07:47:21.290Z,22.88
2023-01-25T07:49:51.065Z,22.90
2023-01-25T07:52:20.842Z,22.92
2023-01-25T07:54:51.663Z,22.93
2023-01-25T07:57:28.801Z,22.96
2023-01-25T08:00:08.425Z,22.98
2023-01-25T08:02:38.705Z,23.01
2023-01-25T08:05:10.005Z,23.04
2023-01-25T08:07:39.929Z,23.07
2023-01-25T08:10:13.830Z,23.10
2023-01-25T08:12:42.696Z,23.12
2023-01-25T08:15:12.961Z,23.15
2023-01-25T08:17:53.754Z,23.18
2023-01-25T08:20:28.361Z,23.21
2023-01-25T08:22:59.177Z,23.25
2023-01-25T08:25:28.483Z,23.27
2023-01-25T08:28:04.822Z,23.27
2023-01-25T08:30:34.168Z,23.25
2023-01-25T08:33:03.503Z,23.22
2023-01-25T08:35:32.714Z,23.20
2023-01-25T08:38:02.075Z,23.19
2023-01-25T08:40:38.221Z,23.17
2023-01-25T08:43:05.650Z,23.17
2023-01-25T08:45:36.242Z,23.15
2023-01-25T08:48:33.322Z,23.14
2023-01-25T08:50:50.052Z,23.12
2023-01-25T08:53:19.320Z,23.10
2023-01-25T08:55:48.739Z,23.09
2023-01-25T08:58:25.699Z,23.08
2023-01-25T09:00:54.945Z,23.06
2023-01-25T09:03:24.217Z,23.01
2023-01-25T09:05:53.606Z,22.99
2023-01-25T09:08:26.188Z,22.97
2023-01-25T09:10:55.812Z,22.95
2023-01-25T09:13:30.472Z,22.92
2023-01-25T09:16:04.068Z,22.90
2023-01-25T09:18:33.758Z,22.91
2023-01-25T09:21:07.076Z,22.93
2023-01-25T09:23:50.246Z,22.95
2023-01-25T09:26:07.315Z,22.97
2023-01-25T09:28:36.591Z,23.00
2023-01-25T09:31:20.345Z,23.01
2023-01-25T09:33:37.702Z,23.06
2023-01-25T09:36:07.277Z,23.08
2023-01-25T09:38:43.329Z,23.10
2023-01-25T09:41:33.915Z,23.13
2023-01-25T09:47:21.756Z,23.19
2023-01-25T09:49:57.442Z,23.18
2023-01-25T09:52:51.829Z,23.15
2023-01-25T09:55:29.014Z,23.13
2023-01-25T09:58:05.569Z,23.10
2023-01-25T10:03:38.523Z,23.09
2023-01-25T10:06:07.651Z,23.07
2023-01-25T10:08:38.281Z,23.06
2023-01-25T10:11:29.546Z,23.05
2023-01-25T10:14:08.077Z,23.03
2023-01-25T10:19:46.555Z,23.00
2023-01-25T10:22:32.883Z,22.97
2023-01-25T10:25:03.973Z,22.96
2023-01-25T10:27:49.288Z,22.95
2023-01-25T10:30:53.417Z,22.93
2023-01-25T10:33:33.240Z,22.91
2023-01-25T10:36:27.177Z,22.88
2023-01-25T10:39:04.710Z,22.88
2023-01-25T10:41:38.665Z,22.85
2023-01-25T10:44:38.644Z,22.83
2023-01-25T10:47:09.498Z,22.81
2023-01-25T10:49:56.917Z,22.78
2023-01-25T10:52:26.808Z,22.76
2023-01-25T10:55:09.961Z,22.73
2023-01-25T10:57:39.482Z,22.72
2023-01-25T11:00:10.399Z,22.70
2023-01-25T11:02:50.756Z,22.68
2023-01-25T11:05:51.866Z,22.67
2023-01-25T11:08:46.226Z,22.65
2023-01-25T11:11:17.260Z,22.62
2023-01-25T11:14:17.365Z,22.60
2023-01-25T11:16:47.249Z,22.59
2023-01-25T11:19:35.666Z,22.56
2023-01-25T11:22:06.585Z,22.54
2023-01-25T11:24:36.320Z,22.52
2023-01-25T11:27:25.249Z,22.50
2023-01-25T11:30:12.615Z,22.46
2023-01-25T11:32:50.926Z,22.45
2023-01-25T11:35:28.752Z,22.43
2023-01-25T11:38:13.175Z,22.42
2023-01-25T11:40:45.533Z,22.39
2023-01-25T11:43:34.787Z,22.38
2023-01-25T11:46:19.602Z,22.34
2023-01-25T11:48:50.314Z,22.37
2023-01-25T11:51:33.837Z,22.38
2023-01-25T11:54:26.703Z,22.41
2023-01-25T11:57:05.207Z,22.44
2023-01-25T11:59:38.990Z,22.50
2023-01-25T12:02:19.708Z,22.56
2023-01-25T12:05:09.333Z,22.63
2023-01-25T12:07:37.803Z,22.71
2023-01-25T12:10:08.724Z,22.78
2023-01-25T12:12:46.523Z,22.84
2023-01-25T12:15:29.337Z,22.90
2023-01-25T12:18:07.580Z,22.97
2023-01-25T12:20:51.722Z,23.07
2023-01-25T12:23:53.363Z,23.15
2023-01-25T12:26:34.900Z,23.24
2023-01-25T12:29:21.479Z,23.31
2023-01-25T12:32:17.436Z,23.38
2023-01-25T12:34:48.683Z,23.48
2023-01-25T12:37:22.717Z,23.57
2023-01-25T12:40:09.833Z,23.64
2023-01-25T12:42:45.375Z,23.70
2023-01-25T12:45:30.096Z,23.76
2023-01-25T12:48:00.119Z,23.80
2023-01-25T12:50:52.287Z,23.86
2023-01-25T12:53:27.219Z,23.92
2023-01-25T12:55:56.805Z,24.01
2023-01-25T12:58:50.664Z,24.05
2023-01-25T13:01:43.510Z,24.09
2023-01-25T13:04:30.531Z,24.13
2023-01-25T13:09:53.768Z,24.24
2023-01-25T13:12:23.315Z,24.30
2023-01-25T13:14:53.422Z,24.36
2023-01-25T13:17:26.870Z,24.40
2023-01-25T13:19:56.152Z,24.44
2023-01-25T13:22:48.528Z,24.47
2023-01-25T13:25:24.570Z,24.51
2023-01-25T13:27:54.030Z,24.58
2023-01-25T13:30:27.960Z,24.62
2023-01-25T13:32:58.581Z,24.66
2023-01-25T13:35:34.504Z,24.69
2023-01-25T13:38:21.637Z,24.71
2023-01-25T13:40:52.166Z,24.74
2023-01-25T13:43:21.334Z,24.78
2023-01-25T13:45:51.067Z,24.83
2023-01-25T13:48:23.624Z,24.88
2023-01-25T13:50:53.596Z,24.93
2023-01-25T13:53:23.622Z,24.96
2023-01-25T13:55:53.371Z,24.99
2023-01-25T13:58:23.597Z,25.02
2023-01-25T14:00:54.316Z,25.04
2023-01-25T14:03:31.305Z,25.07
2023-01-25T14:06:01.398Z,25.10
2023-01-25T14:08:30.644Z,25.12
2023-01-25T14:10:59.968Z,25.14
2023-01-25T14:13:29.245Z,25.17
2023-01-25T14:16:03.086Z,25.19
2023-01-25T14:21:30.138Z,25.25
2023-01-25T14:24:01.012Z,25.30
2023-01-25T14:26:30.167Z,25.32
2023-01-25T14:29:02.146Z,25.36
2023-01-25T14:31:30.719Z,25.38
2023-01-25T14:34:00.040Z,25.40
2023-01-25T14:36:30.105Z,25.43
2023-01-25T14:38:59.576Z,25.47
2023-01-25T14:41:31.519Z,25.48
2023-01-25T14:44:01.435Z,25.51
2023-01-25T14:46:37.977Z,25.54
2023-01-25T14:49:11.671Z,25.56
2023-01-25T14:51:52.028Z,25.57
2023-01-25T14:54:43.936Z,25.60
2023-01-25T14:57:08.159Z,25.62
2023-01-25T14:59:51.138Z,25.65
2023-01-25T15:02:34.091Z,25.69
2023-01-25T15:05:15.153Z,25.70
2023-01-25T15:07:50.927Z,25.74
2023-01-25T15:10:24.251Z,25.77
2023-01-25T15:13:14.590Z,25.79
2023-01-25T15:15:58.920Z,25.81
2023-01-25T15:18:43.932Z,25.84
2023-01-25T15:21:20.055Z,25.87
2023-01-25T15:23:49.575Z,25.85
2023-01-25T15:26:22.581Z,25.78
2023-01-25T15:28:52.103Z,25.80
2023-01-25T15:31:23.198Z,25.84
2023-01-25T15:33:55.215Z,25.83
2023-01-25T15:36:26.748Z,25.78
2023-01-25T15:38:56.013Z,25.75
2023-01-25T15:41:25.287Z,25.72
2023-01-25T15:43:54.832Z,25.70
2023-01-25T15:46:24.705Z,25.69
2023-01-25T15:48:53.957Z,25.66
2023-01-25T15:51:23.312Z,25.64
2023-01-25T15:53:55.307Z,25.61
2023-01-25T15:56:25.383Z,25.59
2023-01-25T15:58:55.224Z,25.57
2023-01-25T16:01:30.523Z,25.55
2023-01-25T16:04:00.478Z,25.52
2023-01-25T16:06:39.805Z,25.50
2023-01-25T16:09:16.711Z,25.48
2023-01-25T16:11:45.983Z,25.46
2023-01-25T16:14:15.441Z,25.43
2023-01-25T16:16:49.943Z,25.41
2023-01-25T16:19:25.143Z,25.37
2023-01-25T16:21:54.675Z,25.35
2023-01-25T16:24:24.021Z,25.34
2023-01-25T16:26:54.655Z,25.30
2023-01-25T16:29:28.562Z,25.28
2023-01-25T16:31:57.788Z,25.26
2023-01-25T16:34:27.551Z,25.23
2023-01-25T16:36:58.487Z,25.24
2023-01-25T16:39:29.529Z,25.26
2023-01-25T16:41:58.652Z,25.30
2023-01-25T16:44:28.248Z,25.32
2023-01-25T16:46:57.744Z,25.34
2023-01-25T16:49:28.197Z,25.36
2023-01-25T16:52:02.775Z,25.38
2023-01-25T16:54:42.866Z,25.39
2023-01-25T16:57:20.589Z,25.42
2023-01-25T16:59:59.997Z,25.46
2023-01-25T17:02:29.339Z,25.48
2023-01-25T17:04:58.721Z,25.50
2023-01-25T17:07:28.211Z,25.52
2023-01-25T17:09:57.450Z,25.54
2023-01-25T17:12:26.694Z,25.55
2023-01-25T17:14:56.096Z,25.57
2023-01-25T17:17:25.324Z,25.61
2023-01-25T17:19:54.644Z,25.61
2023-01-25T17:22:23.953Z,25.64
2023-01-25T17:24:53.249Z,25.67
2023-01-25T17:27:24.064Z,25.68
2023-01-25T17:29:53.275Z,25.71
2023-01-25T17:32:22.486Z,25.73
2023-01-25T17:34:51.792Z,25.75
2023-01-25T17:37:21.118Z,25.78
2023-01-25T17:39:50.519Z,25.79
2023-01-25T17:42:19.790Z,25.82
2023-01-25T17:44:49.112Z,25.84
2023-01-25T17:47:18.492Z,25.84
2023-01-25T17:49:47.708Z,25.88
2023-01-25T17:52:17.028Z,25.89
2023-01-25T17:54:46.350Z,25.92
2023-01-25T17:57:40.996Z,25.94
2023-01-25T17:59:58.590Z,25.96
2023-01-25T18:02:38.394Z,25.95
2023-01-25T18:05:11.335Z,25.91
2023-01-25T18:07:42.515Z,25.85
2023-01-25T18:10:15.305Z,25.82
2023-01-25T18:12:46.404Z,25.77
2023-01-25T18:15:14.841Z,25.71
2023-01-25T18:18:00.438Z,25.71
2023-01-25T18:20:36.108Z,25.69
2023-01-25T18:23:18.426Z,25.65
2023-01-25T18:25:47.913Z,25.63
2023-01-25T18:28:37.197Z,25.60
2023-01-25T18:31:07.069Z,25.57
2023-01-25T18:33:47.141Z,25.55
2023-01-25T18:36:18.051Z,25.53
2023-01-25T18:38:47.381Z,25.50
2023-01-25T18:41:16.485Z,25.47
2023-01-25T18:46:42.134Z,25.42
2023-01-25T18:49:12.851Z,25.38
2023-01-25T18:52:01.873Z,25.34
2023-01-25T18:54:13.485Z,25.34
2023-01-25T18:56:43.376Z,25.31
2023-01-25T18:59:13.412Z,25.28
2023-01-25T19:01:45.897Z,25.26
2023-01-25T19:04:15.139Z,25.27
2023-01-25T19:06:45.238Z,25.30
2023-01-25T19:09:15.365Z,25.33
2023-01-25T19:11:45.241Z,25.35
2023-01-25T19:14:15.529Z,25.38
2023-01-25T19:16:44.894Z,25.40
2023-01-25T19:19:14.252Z,25.44
2023-01-25T19:21:44.290Z,25.46
2023-01-25T19:24:14.929Z,25.49
2023-01-25T19:26:44.204Z,25.49
2023-01-25T19:29:15.798Z,25.54
2023-01-25T19:31:45.463Z,25.55
2023-01-25T19:34:15.227Z,25.57
2023-01-25T19:36:47.135Z,25.60
2023-01-25T19:39:16.528Z,25.61
2023-01-25T19:41:45.788Z,25.65
2023-01-25T19:44:15.544Z,25.68
2023-01-25T19:46:45.455Z,25.70
2023-01-25T19:49:16.154Z,25.72
2023-01-25T19:51:47.015Z,25.74
2023-01-25T19:54:17.729Z,25.77
2023-01-25T19:56:47.773Z,25.80
2023-01-25T19:59:18.050Z,25.83
2023-01-25T20:01:50.715Z,25.83
2023-01-25T20:04:23.994Z,25.79
2023-01-25T20:06:53.628Z,25.74
2023-01-25T20:09:24.170Z,25.69
2023-01-25T20:11:53.538Z,25.66
2023-01-25T20:14:22.697Z,25.63
2023-01-25T20:16:53.163Z,25.61
2023-01-25T20:19:22.353Z,25.59
2023-01-25T20:21:51.833Z,25.57
2023-01-25T20:24:21.061Z,25.55
2023-01-25T20:26:50.392Z,25.54
2023-01-25T20:29:19.484Z,25.51
2023-01-25T20:31:48.767Z,25.50
2023-01-25T20:34:18.891Z,25.48
2023-01-25T20:36:48.160Z,25.46
2023-01-25T20:39:18.034Z,25.43
2023-01-25T20:41:47.352Z,25.40
2023-01-25T20:44:17.894Z,25.39
2023-01-25T20:46:47.170Z,25.38
2023-01-25T20:49:17.010Z,25.36
2023-01-25T20:51:46.231Z,25.35
2023-01-25T20:54:15.445Z,25.37
2023-01-25T20:56:46.918Z,25.42
2023-01-25T20:59:17.335Z,25.47
2023-01-25T21:01:47.522Z,25.51
2023-01-25T21:04:16.899Z,25.55
2023-01-25T21:06:46.000Z,25.57
2023-01-25T21:09:15.432Z,25.60
2023-01-25T21:11:45.560Z,25.61
2023-01-25T21:14:15.516Z,25.64
2023-01-25T21:16:44.703Z,25.69
2023-01-25T21:19:25.688Z,25.72
2023-01-25T21:21:55.133Z,25.74
2023-01-25T21:24:26.128Z,25.79
2023-01-25T21:26:55.506Z,25.83
2023-01-25T21:29:24.798Z,25.85
2023-01-25T21:31:55.472Z,25.89
2023-01-25T21:34:24.868Z,25.91
2023-01-25T21:36:54.127Z,25.95
2023-01-25T21:39:23.418Z,25.94
2023-01-25T21:41:52.739Z,25.92
2023-01-25T21:44:39.541Z,25.89
2023-01-25T21:47:28.990Z,25.85
2023-01-25T21:49:56.611Z,25.82
2023-01-25T21:52:25.884Z,25.80
2023-01-25T21:54:55.079Z,25.79
2023-01-25T21:57:24.345Z,25.77
2023-01-25T21:59:54.495Z,25.76
2023-01-25T22:02:23.818Z,25.72
2023-01-25T22:04:53.140Z,25.71
2023-01-25T22:07:22.355Z,25.69
2023-01-25T22:09:51.576Z,25.68
2023-01-25T22:12:21.061Z,25.66
2023-01-25T22:14:50.377Z,25.64
2023-01-25T22:17:20.662Z,25.63
2023-01-25T22:19:50.044Z,25.63
2023-01-25T22:22:19.312Z,25.62
2023-01-25T22:24:48.890Z,25.61
2023-01-25T22:27:25.453Z,25.58
2023-01-25T22:29:54.574Z,25.58
2023-01-25T22:32:23.823Z,25.56
2023-01-25T22:34:53.185Z,25.55
2023-01-25T22:37:23.822Z,25.53
2023-01-25T22:39:54.477Z,25.52
2023-01-25T22:42:25.292Z,25.51
2023-01-25T22:44:54.530Z,25.50
2023-01-25T22:47:29.718Z,25.56
2023-01-25T22:49:59.053Z,25.61
2023-01-25T22:52:28.335Z,25.67
2023-01-25T22:54:57.645Z,25.71
2023-01-25T22:57:26.967Z,25.75
2023-01-25T22:59:56.500Z,25.78
2023-01-25T23:02:25.800Z,25.82
2023-01-25T23:04:55.128Z,25.86
2023-01-25T23:07:24.440Z,25.90
2023-01-25T23:09:53.616Z,25.94
2023-01-25T23:12:22.738Z,25.93
2023-01-25T23:14:56.082Z,25.91
2023-01-25T23:17:42.721Z,25.88
2023-01-25T23:20:12.901Z,25.85
2023-01-25T23:22:43.543Z,25.82
2023-01-25T23:25:13.416Z,25.80
2023-01-25T23:27:43.136Z,25.78
2023-01-25T23:30:13.599Z,25.71
2023-01-25T23:32:44.497Z,25.71
2023-01-25T23:35:13.983Z,25.68
2023-01-25T23:37:44.033Z,25.64
2023-01-25T23:40:14.390Z,25.62
2023-01-25T23:42:44.023Z,25.59
2023-01-25T23:45:13.918Z,25.59
2023-01-25T23:47:44.158Z,25.55
2023-01-25T23:50:14.276Z,25.53
2023-01-25T23:52:44.083Z,25.51
2023-01-25T23:55:15.655Z,25.49
2023-01-25T23:57:45.099Z,25.47
